createdAt,value
2022-09-16T00:00:33.224Z,14.20
2022-09-16T00:02:59.984Z,14.10
2022-09-16T00:05:27.072Z,14.10
2022-09-16T00:07:55.787Z,14.20
2022-09-16T00:10:23.190Z,14.20
2022-09-16T00:12:50.540Z,14.20
2022-09-16T00:15:17.916Z,14.20
2022-09-16T00:17:44.660Z,14.20
2022-09-16T00:20:11.470Z,14.20
2022-09-16T00:22:38.349Z,14.20
2022-09-16T00:25:05.500Z,14.20
2022-09-16T00:27:32.477Z,14.30
2022-09-16T00:29:59.294Z,14.30
2022-09-16T00:32:26.183Z,14.30
2022-09-16T00:34:53.047Z,14.30
2022-09-16T00:37:19.892Z,14.20
2022-09-16T00:39:49.699Z,14.30
2022-09-16T00:42:17.640Z,14.20
2022-09-16T00:45:05.585Z,14.20
2022-09-16T00:47:48.763Z,14.30
2022-09-16T00:50:40.609Z,14.30
2022-09-16T00:53:19.475Z,14.30
2022-09-16T00:55:46.686Z,14.30
2022-09-16T00:58:15.731Z,14.30
2022-09-16T01:00:43.377Z,14.30
2022-09-16T01:03:10.379Z,14.30
2022-09-16T01:05:37.864Z,14.30
2022-09-16T01:08:04.958Z,14.30
2022-09-16T01:10:31.737Z,14.30
2022-09-16T01:13:09.510Z,14.30
2022-09-16T01:15:54.889Z,14.30
2022-09-16T01:18:38.415Z,14.30
2022-09-16T01:21:05.112Z,14.30
2022-09-16T01:23:50.640Z,14.40
2022-09-16T01:26:47.425Z,14.30
2022-09-16T01:29:26.534Z,14.40
2022-09-16T01:32:12.604Z,14.40
2022-09-16T01:35:04.761Z,14.40
2022-09-16T01:37:44.968Z,14.50
2022-09-16T01:40:23.631Z,14.40
2022-09-16T01:43:04.112Z,14.40
2022-09-16T01:45:39.739Z,14.40
2022-09-16T01:48:19.570Z,14.40
2022-09-16T01:51:03.020Z,14.40
2022-09-16T01:53:29.678Z,14.40
2022-09-16T01:56:20.852Z,14.40
2022-09-16T01:59:09.720Z,14.30
2022-09-16T02:01:49.741Z,14.30
2022-09-16T02:04:23.259Z,14.30
2022-09-16T02:06:54.075Z,14.20
2022-09-16T02:09:26.608Z,14.30
2022-09-16T02:11:56.840Z,14.20
2022-09-16T02:14:28.295Z,14.20
2022-09-16T02:17:02.648Z,14.20
2022-09-16T02:19:36.774Z,14.20
2022-09-16T02:22:08.121Z,14.30
2022-09-16T02:24:36.463Z,14.20
2022-09-16T02:27:07.330Z,14.20
2022-09-16T02:29:40.915Z,14.20
2022-09-16T02:32:09.945Z,14.20
2022-09-16T02:34:43.476Z,14.20
2022-09-16T02:37:20.354Z,14.20
2022-09-16T02:39:51.020Z,14.20
2022-09-16T02:42:18.040Z,14.20
2022-09-16T02:44:46.876Z,14.20
2022-09-16T02:47:20.676Z,14.20
2022-09-16T02:50:09.340Z,14.10
2022-09-16T02:52:53.065Z,14.10
2022-09-16T02:55:51.788Z,14.10
2022-09-16T02:58:18.781Z,14.10
2022-09-16T03:00:52.252Z,14.10
2022-09-16T03:03:19.220Z,14.00
2022-09-16T03:06:25.260Z,14.10
2022-09-16T03:08:56.075Z,14.10
2022-09-16T03:11:31.867Z,14.00
2022-09-16T03:14:11.379Z,14.10
2022-09-16T03:17:06.533Z,14.10
2022-09-16T03:20:07.536Z,14.10
2022-09-16T03:22:52.744Z,14.10
2022-09-16T03:25:25.700Z,14.10
2022-09-16T03:28:16.932Z,14.10
2022-09-16T03:30:55.975Z,14.10
2022-09-16T03:33:37.450Z,14.10
2022-09-16T03:36:07.419Z,14.10
2022-09-16T03:38:36.498Z,14.10
2022-09-16T03:41:06.338Z,14.10
2022-09-16T03:43:33.127Z,14.10
2022-09-16T03:45:59.925Z,14.10
2022-09-16T03:48:26.787Z,14.10
2022-09-16T03:50:53.816Z,14.20
2022-09-16T03:53:20.647Z,14.10
2022-09-16T03:55:49.932Z,14.20
2022-09-16T03:58:16.741Z,14.20
2022-09-16T04:00:43.575Z,14.10
2022-09-16T04:03:10.409Z,14.20
2022-09-16T04:05:37.213Z,14.10
2022-09-16T04:08:04.020Z,14.10
2022-09-16T04:10:30.797Z,14.20
2022-09-16T04:12:58.775Z,14.20
2022-09-16T04:15:25.558Z,14.10
2022-09-16T04:17:52.601Z,14.20
2022-09-16T04:20:19.435Z,14.20
2022-09-16T04:22:46.232Z,14.20
2022-09-16T04:25:13.073Z,14.20
2022-09-16T04:27:40.669Z,14.20
2022-09-16T04:30:08.164Z,14.20
2022-09-16T04:32:34.945Z,14.20
2022-09-16T04:35:01.751Z,14.20
2022-09-16T04:37:31.372Z,14.20
2022-09-16T04:40:01.082Z,14.20
2022-09-16T04:42:31.042Z,14.20
2022-09-16T04:44:57.897Z,14.20
2022-09-16T04:47:24.764Z,14.20
2022-09-16T04:49:51.910Z,14.20
2022-09-16T04:52:18.703Z,14.10
2022-09-16T04:54:45.509Z,14.10
2022-09-16T04:57:12.254Z,14.10
2022-09-16T04:59:39.143Z,14.10
2022-09-16T05:02:06.007Z,14.10
2022-09-16T05:04:32.731Z,14.10
2022-09-16T05:06:59.452Z,14.10
2022-09-16T05:09:26.235Z,14.10
2022-09-16T05:11:53.007Z,14.10
2022-09-16T05:14:20.077Z,14.10
2022-09-16T05:16:47.179Z,14.10
2022-09-16T05:19:14.590Z,14.10
2022-09-16T05:21:41.985Z,14.10
2022-09-16T05:24:11.329Z,14.10
2022-09-16T05:26:39.968Z,14.00
2022-09-16T05:29:09.379Z,14.00
2022-09-16T05:31:38.853Z,14.00
2022-09-16T05:34:17.442Z,14.00
2022-09-16T05:36:47.447Z,14.00
2022-09-16T05:39:25.836Z,14.00
2022-09-16T05:54:03.655Z,14.00
2022-09-16T05:58:23.846Z,14.00
2022-09-16T06:04:31.068Z,14.00
2022-09-16T06:07:09.147Z,14.00
2022-09-16T06:10:37.474Z,14.00
2022-09-16T06:14:15.341Z,14.00
2022-09-16T06:17:41.339Z,14.00
2022-09-16T06:20:58.768Z,14.00
2022-09-16T06:27:19.002Z,13.90
2022-09-16T06:38:05.444Z,13.80
2022-09-16T06:44:44.017Z,13.70
2022-09-16T06:47:13.082Z,13.70
2022-09-16T06:50:09.301Z,13.70
2022-09-16T06:55:27.808Z,13.60
2022-09-16T06:58:30.418Z,13.60
2022-09-16T07:00:57.497Z,13.70
2022-09-16T07:07:09.160Z,13.70
2022-09-16T07:09:36.976Z,13.60
2022-09-16T07:12:03.918Z,13.60
2022-09-16T07:14:33.735Z,13.60
2022-09-16T07:17:01.999Z,13.60
2022-09-16T07:19:34.123Z,13.60
2022-09-16T07:22:00.866Z,13.50
2022-09-16T07:24:47.202Z,13.50
2022-09-16T07:28:40.456Z,13.50
2022-09-16T07:31:45.683Z,13.60
2022-09-16T07:34:40.413Z,13.60
2022-09-16T07:37:24.716Z,13.60
2022-09-16T07:40:26.650Z,13.60
2022-09-16T07:43:04.981Z,13.60
2022-09-16T07:45:32.082Z,13.60
2022-09-16T07:54:37.510Z,13.60
2022-09-16T07:57:56.592Z,13.60
2022-09-16T08:00:31.995Z,13.60
2022-09-16T08:03:16.034Z,13.60
2022-09-16T08:05:42.914Z,13.60
2022-09-16T08:08:19.231Z,13.70
2022-09-16T08:11:58.742Z,13.70
2022-09-16T08:14:25.935Z,13.70
2022-09-16T08:16:55.006Z,13.60
2022-09-16T08:19:23.394Z,13.60
2022-09-16T08:21:59.316Z,13.70
2022-09-16T08:31:10.421Z,14.00
2022-09-16T08:33:51.058Z,14.00
2022-09-16T08:36:29.013Z,14.10
2022-09-16T08:39:09.338Z,14.00
2022-09-16T08:42:08.053Z,14.10
2022-09-16T08:45:15.527Z,14.10
2022-09-16T08:48:55.810Z,14.10
2022-09-16T08:51:33.725Z,14.10
2022-09-16T08:54:07.851Z,14.10
2022-09-16T08:57:36.052Z,14.10
2022-09-16T09:03:57.802Z,14.00
2022-09-16T09:06:45.579Z,14.00
2022-09-16T09:14:03.357Z,14.00
2022-09-16T09:16:59.899Z,14.00
2022-09-16T09:20:09.650Z,14.00
2022-09-16T09:22:55.420Z,14.00
2022-09-16T09:25:56.537Z,14.10
2022-09-16T09:28:44.328Z,14.00
2022-09-16T09:31:45.966Z,14.10
2022-09-16T09:34:34.973Z,14.10
2022-09-16T09:37:34.086Z,14.10
2022-09-16T09:40:10.400Z,14.20
2022-09-16T09:43:01.628Z,14.20
2022-09-16T09:45:43.626Z,14.20
2022-09-16T09:48:30.700Z,14.30
2022-09-16T09:54:26.526Z,14.30
2022-09-16T09:57:08.723Z,14.30
2022-09-16T09:59:58.386Z,14.30
2022-09-16T10:02:25.663Z,14.30
2022-09-16T10:05:00.028Z,14.40
2022-09-16T10:07:29.309Z,14.40
2022-09-16T10:10:22.163Z,14.40
2022-09-16T10:12:50.029Z,14.50
2022-09-16T10:16:14.955Z,14.50
2022-09-16T10:19:33.323Z,14.40
2022-09-16T10:23:09.848Z,14.40
2022-09-16T10:26:14.582Z,14.50
2022-09-16T10:28:57.618Z,14.60
2022-09-16T10:32:12.806Z,14.60
2022-09-16T10:34:44.190Z,14.80
2022-09-16T10:37:22.502Z,14.80
2022-09-16T10:39:58.664Z,14.90
2022-09-16T10:42:37.752Z,14.90
2022-09-16T10:45:23.596Z,15.00
2022-09-16T10:47:59.209Z,15.00
2022-09-16T10:50:31.091Z,15.00
2022-09-16T10:53:23.283Z,14.90
2022-09-16T10:56:24.290Z,14.80
2022-09-16T10:59:20.923Z,14.80
2022-09-16T11:02:29.637Z,14.70
2022-09-16T11:05:21.624Z,14.70
2022-09-16T11:08:13.249Z,14.70
2022-09-16T11:11:14.641Z,14.60
2022-09-16T11:14:10.363Z,14.60
2022-09-16T11:17:11.376Z,14.60
2022-09-16T11:23:41.677Z,14.50
2022-09-16T11:27:17.512Z,14.60
2022-09-16T11:30:14.152Z,14.60
2022-09-16T11:33:18.639Z,14.60
2022-09-16T11:36:39.326Z,14.60
2022-09-16T11:39:49.037Z,14.60
2022-09-16T11:42:42.872Z,14.70
2022-09-16T11:45:48.745Z,14.70
2022-09-16T11:49:01.138Z,14.80
2022-09-16T11:52:08.275Z,14.90
2022-09-16T11:55:54.121Z,15.00
2022-09-16T12:02:35.494Z,15.20
2022-09-16T12:05:27.888Z,15.20
2022-09-16T12:09:11.806Z,15.30
2022-09-16T12:12:34.707Z,15.30
2022-09-16T12:15:20.495Z,15.30
2022-09-16T12:18:43.179Z,15.40
2022-09-16T12:21:58.721Z,15.30
2022-09-16T12:24:45.489Z,15.30
2022-09-16T12:27:43.004Z,15.30
2022-09-16T12:30:28.293Z,15.30
2022-09-16T12:33:08.095Z,15.30
2022-09-16T12:35:56.433Z,15.30
2022-09-16T12:38:25.536Z,15.20
2022-09-16T12:41:33.580Z,15.20
2022-09-16T12:45:24.593Z,15.20
2022-09-16T12:47:56.922Z,15.10
2022-09-16T12:50:51.714Z,15.10
2022-09-16T12:53:57.980Z,15.10
2022-09-16T12:57:35.132Z,15.10
2022-09-16T13:00:25.990Z,15.20
2022-09-16T13:02:57.479Z,15.30
2022-09-16T13:05:33.439Z,15.40
2022-09-16T13:14:23.540Z,15.60
2022-09-16T13:17:02.640Z,15.70
2022-09-16T13:19:59.946Z,15.80
2022-09-16T13:22:47.570Z,15.90
2022-09-16T13:26:03.698Z,15.90
2022-09-16T13:28:34.530Z,16.00
2022-09-16T13:31:25.048Z,15.90
2022-09-16T13:37:55.292Z,15.90
2022-09-16T13:40:53.268Z,15.90
2022-09-16T13:43:30.650Z,15.90
2022-09-16T13:46:14.301Z,15.90
2022-09-16T13:48:59.860Z,16.00
2022-09-16T13:51:52.968Z,16.00
2022-09-16T13:54:37.102Z,16.00
2022-09-16T13:57:56.400Z,16.00
2022-09-16T14:00:45.517Z,16.10
2022-09-16T14:03:37.545Z,16.30
2022-09-16T14:10:03.422Z,16.40
2022-09-16T14:13:03.333Z,16.40
2022-09-16T14:15:42.095Z,16.40
2022-09-16T14:18:34.598Z,16.50
2022-09-16T14:21:28.451Z,16.50
2022-09-16T14:24:05.793Z,16.40
2022-09-16T14:26:53.938Z,16.30
2022-09-16T14:30:28.192Z,16.30
2022-09-16T14:32:55.089Z,16.30
2022-09-16T14:35:24.838Z,16.30
2022-09-16T14:37:57.355Z,16.40
2022-09-16T14:40:26.947Z,16.50
2022-09-16T14:42:58.362Z,16.60
2022-09-16T14:45:31.228Z,16.60
2022-09-16T14:48:01.571Z,16.70
2022-09-16T14:50:36.405Z,16.70
2022-09-16T14:53:10.036Z,16.80
2022-09-16T14:55:40.143Z,16.90
2022-09-16T14:58:11.370Z,16.90
2022-09-16T15:00:58.927Z,17.10
2022-09-16T15:03:44.439Z,17.20
2022-09-16T15:06:21.215Z,17.40
2022-09-16T15:08:59.411Z,17.70
2022-09-16T15:11:47.129Z,17.90
2022-09-16T15:14:15.472Z,18.00
2022-09-16T15:16:50.653Z,18.20
2022-09-16T15:19:22.318Z,18.30
2022-09-16T15:21:50.284Z,18.30
2022-09-16T15:24:28.883Z,18.40
2022-09-16T15:26:57.463Z,18.30
2022-09-16T15:29:26.332Z,18.20
2022-09-16T15:31:53.538Z,18.00
2022-09-16T15:34:23.510Z,17.80
2022-09-16T15:36:58.826Z,17.70
2022-09-16T15:39:32.857Z,17.70
2022-09-16T15:42:32.007Z,17.60
2022-09-16T15:45:01.323Z,17.70
2022-09-16T15:47:53.487Z,17.60
2022-09-16T15:50:21.582Z,17.60
2022-09-16T15:52:58.592Z,17.50
2022-09-16T15:55:35.338Z,17.50
2022-09-16T15:58:20.135Z,17.60
2022-09-16T16:01:18.691Z,17.80
2022-09-16T16:03:45.365Z,17.90
2022-09-16T16:06:13.157Z,17.70
2022-09-16T16:08:54.096Z,17.60
2022-09-16T16:11:27.229Z,17.50
2022-09-16T16:14:09.609Z,17.30
2022-09-16T16:16:45.697Z,17.10
2022-09-16T16:19:31.926Z,16.90
2022-09-16T16:22:00.252Z,16.70
2022-09-16T16:24:34.676Z,16.60
2022-09-16T16:27:01.729Z,16.60
2022-09-16T16:29:33.606Z,16.60
2022-09-16T16:32:02.820Z,16.70
2022-09-16T16:34:35.351Z,16.80
2022-09-16T16:37:02.216Z,16.80
2022-09-16T16:39:36.577Z,16.90
2022-09-16T16:42:05.981Z,16.80
2022-09-16T16:44:41.132Z,16.60
2022-09-16T16:47:09.012Z,16.50
2022-09-16T16:49:41.006Z,16.40
2022-09-16T16:52:08.742Z,16.20
2022-09-16T16:54:46.586Z,16.10
2022-09-16T16:57:23.675Z,15.90
2022-09-16T16:59:51.864Z,15.80
2022-09-16T17:02:29.141Z,15.70
2022-09-16T17:04:56.134Z,15.60
2022-09-16T17:07:33.363Z,15.50
2022-09-16T17:10:00.166Z,15.50
2022-09-16T17:12:29.370Z,15.40
2022-09-16T17:14:57.352Z,15.30
2022-09-16T17:17:33.894Z,15.30
2022-09-16T17:20:00.744Z,15.20
2022-09-16T17:22:35.118Z,15.20
2022-09-16T17:25:13.382Z,15.20
2022-09-16T17:27:47.576Z,15.10
2022-09-16T17:30:16.906Z,15.10
2022-09-16T17:32:43.601Z,15.00
2022-09-16T17:35:10.261Z,15.00
2022-09-16T17:37:38.424Z,15.00
2022-09-16T17:40:06.427Z,14.90
2022-09-16T17:42:33.107Z,14.90
2022-09-16T17:45:00.747Z,14.80
2022-09-16T17:47:27.489Z,14.80
2022-09-16T17:49:54.203Z,14.70
2022-09-16T17:52:20.833Z,14.60
2022-09-16T17:54:47.684Z,14.50
2022-09-16T17:57:14.479Z,14.50
2022-09-16T17:59:41.126Z,14.40
2022-09-16T18:02:09.880Z,14.40
2022-09-16T18:04:36.690Z,14.30
2022-09-16T18:07:03.442Z,14.20
2022-09-16T18:09:30.253Z,14.10
2022-09-16T18:11:58.549Z,14.10
2022-09-16T18:14:25.266Z,14.10
2022-09-16T18:16:52.054Z,14.00
2022-09-16T18:19:18.984Z,14.00
2022-09-16T18:21:45.696Z,13.90
2022-09-16T18:24:13.095Z,13.90
2022-09-16T18:26:42.028Z,13.90
2022-09-16T18:29:12.089Z,13.90
2022-09-16T18:31:46.834Z,13.90
2022-09-16T18:34:14.763Z,13.80
2022-09-16T18:36:41.929Z,13.80
2022-09-16T18:39:13.230Z,13.90
2022-09-16T18:41:42.165Z,13.80
2022-09-16T18:44:20.072Z,13.80
2022-09-16T18:46:47.215Z,13.80
2022-09-16T18:49:16.006Z,13.80
2022-09-16T18:51:50.087Z,13.80
2022-09-16T18:54:28.527Z,13.80
2022-09-16T18:57:00.237Z,13.70
2022-09-16T18:59:29.518Z,13.70
2022-09-16T19:01:59.315Z,13.70
2022-09-16T19:04:32.458Z,13.70
2022-09-16T19:07:07.242Z,13.70
2022-09-16T19:09:36.140Z,13.70
2022-09-16T19:12:03.541Z,13.60
2022-09-16T19:14:30.371Z,13.60
2022-09-16T19:16:57.124Z,13.50
2022-09-16T19:19:23.848Z,13.50
2022-09-16T19:21:50.933Z,13.50
2022-09-16T19:24:23.690Z,13.50
2022-09-16T19:26:52.837Z,13.50
2022-09-16T19:29:20.403Z,13.40
2022-09-16T19:31:50.057Z,13.40
2022-09-16T19:34:17.084Z,13.40
2022-09-16T19:36:44.424Z,13.30
2022-09-16T19:39:12.348Z,13.30
2022-09-16T19:41:40.943Z,13.30
2022-09-16T19:44:12.157Z,13.20
2022-09-16T19:46:42.431Z,13.20
2022-09-16T19:49:14.089Z,13.10
2022-09-16T19:51:40.774Z,13.10
2022-09-16T19:54:07.448Z,13.10
2022-09-16T19:56:34.405Z,13.10
2022-09-16T19:59:01.651Z,13.10
2022-09-16T20:01:32.905Z,13.00
2022-09-16T20:04:01.046Z,13.00
2022-09-16T20:06:34.813Z,12.90
2022-09-16T20:09:04.174Z,13.00
2022-09-16T20:11:33.331Z,12.90
2022-09-16T20:14:03.016Z,12.90
2022-09-16T20:16:35.558Z,12.80
2022-09-16T20:19:04.389Z,12.80
2022-09-16T20:21:34.562Z,12.80
2022-09-16T20:24:02.832Z,12.70
2022-09-16T20:26:29.671Z,12.70
2022-09-16T20:28:59.284Z,12.70
2022-09-16T20:31:31.683Z,12.70
2022-09-16T20:33:58.831Z,12.70
2022-09-16T20:36:27.327Z,12.70
2022-09-16T20:38:54.065Z,12.70
2022-09-16T20:41:23.277Z,12.60
2022-09-16T20:43:50.811Z,12.60
2022-09-16T20:46:21.772Z,12.60
2022-09-16T20:48:49.108Z,12.60
2022-09-16T20:51:18.140Z,12.70
2022-09-16T20:53:50.565Z,12.70
2022-09-16T20:56:17.701Z,12.60
2022-09-16T20:58:45.063Z,12.60
2022-09-16T21:01:15.023Z,12.50
2022-09-16T21:03:43.018Z,12.50
2022-09-16T21:06:12.021Z,12.50
2022-09-16T21:08:39.083Z,12.40
2022-09-16T21:11:08.204Z,12.40
2022-09-16T21:13:35.784Z,12.40
2022-09-16T21:16:03.384Z,12.30
2022-09-16T21:18:31.126Z,12.20
2022-09-16T21:21:06.685Z,12.20
2022-09-16T21:23:34.646Z,12.10
2022-09-16T21:26:05.359Z,12.10
2022-09-16T21:28:34.046Z,12.00
2022-09-16T21:31:02.646Z,12.00
2022-09-16T21:33:31.456Z,12.00
2022-09-16T21:35:59.084Z,11.90
2022-09-16T21:38:28.031Z,12.00
2022-09-16T21:41:02.869Z,11.90
2022-09-16T21:43:35.404Z,11.90
2022-09-16T21:46:02.682Z,11.80
2022-09-16T21:48:31.995Z,11.80
2022-09-16T21:51:10.491Z,11.80
2022-09-16T21:53:37.999Z,11.80
2022-09-16T21:56:07.148Z,11.80
2022-09-16T21:58:34.938Z,11.80
2022-09-16T22:01:28.583Z,11.70
2022-09-16T22:04:01.645Z,11.70
2022-09-16T22:06:29.150Z,11.70
2022-09-16T22:08:59.245Z,11.70
2022-09-16T22:11:27.662Z,11.70
2022-09-16T22:13:56.064Z,11.70
2022-09-16T22:16:28.649Z,11.70
2022-09-16T22:19:07.420Z,11.70
2022-09-16T22:21:37.370Z,11.70
2022-09-16T22:24:04.746Z,11.70
2022-09-16T22:26:31.530Z,11.70
2022-09-16T22:28:58.551Z,11.60
2022-09-16T22:31:28.000Z,11.70
2022-09-16T22:33:56.514Z,11.70
2022-09-16T22:36:26.027Z,11.70
2022-09-16T22:38:55.255Z,11.70
2022-09-16T22:41:23.705Z,11.70
2022-09-16T22:43:51.710Z,11.70
2022-09-16T22:46:20.896Z,11.70
2022-09-16T22:48:48.057Z,11.70
2022-09-16T22:51:17.119Z,11.70
2022-09-16T22:53:44.650Z,11.70
2022-09-16T22:56:13.836Z,11.70
2022-09-16T22:58:41.718Z,11.70
2022-09-16T23:01:11.558Z,11.70
2022-09-16T23:03:38.905Z,11.70
2022-09-16T23:06:08.935Z,11.70
2022-09-16T23:08:37.543Z,11.70
2022-09-16T23:11:05.899Z,11.60
2022-09-16T23:13:34.358Z,11.60
2022-09-16T23:16:03.039Z,11.60
2022-09-16T23:18:34.611Z,11.60
2022-09-16T23:21:06.772Z,11.60
2022-09-16T23:23:37.139Z,11.60
2022-09-16T23:26:05.945Z,11.50
2022-09-16T23:28:33.623Z,11.60
2022-09-16T23:31:05.722Z,11.50
2022-09-16T23:33:32.701Z,11.60
2022-09-16T23:35:59.720Z,11.60
2022-09-16T23:38:27.138Z,11.50
2022-09-16T23:40:53.850Z,11.50
2022-09-16T23:43:20.741Z,11.50
2022-09-16T23:45:47.555Z,11.50
2022-09-16T23:48:14.382Z,11.50
2022-09-16T23:50:43.806Z,11.50
2022-09-16T23:53:10.852Z,11.50
2022-09-16T23:55:42.250Z,11.50
2022-09-16T23:58:09.588Z,11.50
